<?xml version="1.0" encoding="UTF-8" standalone="no" ?>
<gpx xmlns="http://www.topografix.com/GPX/1/1" xmlns:xsi="http://www.w3.org/2001/XMLSchema-instance" xsi:schemaLocation="http://www.topografix.com/GPX/1/1 http://www.topografix.com/GPX/1/1/gpx.xsd" version="1.1" creator="VisuGPX - https://www.visugpx.com">
  <metadata>
    <name>2021-06-04T07:36:19Z</name>
    <desc><![CDATA[Nous étions 17]]></desc>
  </metadata>
  <trk>
    <name><![CDATA[2021-06-04T07:36:19Z]]></name>
    <trkseg>
      <trkpt lat="45.82154" lon="5.85128">
        <ele>313.7065697</ele>
        <time>2021-06-04T07:36:19Z</time>
      </trkpt>
      <trkpt lat="45.82145" lon="5.85127">
        <ele>311.7242795</ele>
        <time>2021-06-04T07:36:44Z</time>
      </trkpt>
      <trkpt lat="45.82136" lon="5.8513">
        <ele>311.6266627</ele>
        <time>2021-06-04T07:37:37Z</time>
      </trkpt>
      <trkpt lat="45.82145" lon="5.85132">
        <ele>312.1256935</ele>
        <time>2021-06-04T07:38:03Z</time>
      </trkpt>
      <trkpt lat="45.82154" lon="5.8513">
        <ele>313.2758863</ele>
        <time>2021-06-04T07:38:14Z</time>
      </trkpt>
      <trkpt lat="45.82151" lon="5.85142">
        <ele>316.1771241</ele>
        <time>2021-06-04T07:39:06Z</time>
      </trkpt>
      <trkpt lat="45.82151" lon="5.85155">
        <ele>316.4814561</ele>
        <time>2021-06-04T07:39:24Z</time>
      </trkpt>
      <trkpt lat="45.82154" lon="5.85168">
        <ele>315.7987498</ele>
        <time>2021-06-04T07:39:50Z</time>
      </trkpt>
      <trkpt lat="45.82158" lon="5.85181">
        <ele>315.9930966</ele>
        <time>2021-06-04T07:39:59Z</time>
      </trkpt>
      <trkpt lat="45.82158" lon="5.85194">
        <ele>317.1464925</ele>
        <time>2021-06-04T07:40:07Z</time>
      </trkpt>
      <trkpt lat="45.82154" lon="5.85207">
        <ele>318.1090166</ele>
        <time>2021-06-04T07:40:15Z</time>
      </trkpt>
      <trkpt lat="45.8215" lon="5.85219">
        <ele>319.0488008</ele>
        <time>2021-06-04T07:40:23Z</time>
      </trkpt>
      <trkpt lat="45.82146" lon="5.85232">
        <ele>319.5518421</ele>
        <time>2021-06-04T07:40:31Z</time>
      </trkpt>
      <trkpt lat="45.82141" lon="5.85243">
        <ele>320.9165024</ele>
        <time>2021-06-04T07:40:38Z</time>
      </trkpt>
      <trkpt lat="45.82137" lon="5.85254">
        <ele>320.6861849</ele>
        <time>2021-06-04T07:40:45Z</time>
      </trkpt>
      <trkpt lat="45.82132" lon="5.85266">
        <ele>321.0885329</ele>
        <time>2021-06-04T07:40:52Z</time>
      </trkpt>
      <trkpt lat="45.82127" lon="5.85278">
        <ele>319.4498641</ele>
        <time>2021-06-04T07:41:00Z</time>
      </trkpt>
      <trkpt lat="45.82129" lon="5.85292">
        <ele>319.7761028</ele>
        <time>2021-06-04T07:41:08Z</time>
      </trkpt>
      <trkpt lat="45.8213" lon="5.85305">
        <ele>321.3565557</ele>
        <time>2021-06-04T07:41:14Z</time>
      </trkpt>
      <trkpt lat="45.82131" lon="5.85319">
        <ele>322.7175224</ele>
        <time>2021-06-04T07:41:23Z</time>
      </trkpt>
      <trkpt lat="45.82128" lon="5.85331">
        <ele>323.2620097</ele>
        <time>2021-06-04T07:41:32Z</time>
      </trkpt>
      <trkpt lat="45.82119" lon="5.85338">
        <ele>324.9802573</ele>
        <time>2021-06-04T07:41:41Z</time>
      </trkpt>
      <trkpt lat="45.82109" lon="5.85343">
        <ele>326.6293493</ele>
        <time>2021-06-04T07:41:49Z</time>
      </trkpt>
      <trkpt lat="45.82101" lon="5.85349">
        <ele>327.9233547</ele>
        <time>2021-06-04T07:41:58Z</time>
      </trkpt>
      <trkpt lat="45.82092" lon="5.85354">
        <ele>328.1687376</ele>
        <time>2021-06-04T07:42:06Z</time>
      </trkpt>
      <trkpt lat="45.82082" lon="5.85359">
        <ele>329.1301094</ele>
        <time>2021-06-04T07:42:14Z</time>
      </trkpt>
      <trkpt lat="45.82074" lon="5.85363">
        <ele>330.4927797</ele>
        <time>2021-06-04T07:42:21Z</time>
      </trkpt>
      <trkpt lat="45.82065" lon="5.85367">
        <ele>331.7706757</ele>
        <time>2021-06-04T07:42:29Z</time>
      </trkpt>
      <trkpt lat="45.82056" lon="5.85371">
        <ele>332.6919408</ele>
        <time>2021-06-04T07:42:37Z</time>
      </trkpt>
      <trkpt lat="45.82048" lon="5.85379">
        <ele>334.0685551</ele>
        <time>2021-06-04T07:42:45Z</time>
      </trkpt>
      <trkpt lat="45.8204" lon="5.85388">
        <ele>334.8082701</ele>
        <time>2021-06-04T07:42:54Z</time>
      </trkpt>
      <trkpt lat="45.82037" lon="5.854">
        <ele>334.1593611</ele>
        <time>2021-06-04T07:43:08Z</time>
      </trkpt>
      <trkpt lat="45.8203" lon="5.85409">
        <ele>335.1751524</ele>
        <time>2021-06-04T07:43:15Z</time>
      </trkpt>
      <trkpt lat="45.82023" lon="5.85417">
        <ele>337.490339</ele>
        <time>2021-06-04T07:43:23Z</time>
      </trkpt>
      <trkpt lat="45.82015" lon="5.85425">
        <ele>339.238433</ele>
        <time>2021-06-04T07:43:32Z</time>
      </trkpt>
      <trkpt lat="45.82006" lon="5.85432">
        <ele>340.9940274</ele>
        <time>2021-06-04T07:43:42Z</time>
      </trkpt>
      <trkpt lat="45.81997" lon="5.85438">
        <ele>341.303023</ele>
        <time>2021-06-04T07:43:53Z</time>
      </trkpt>
      <trkpt lat="45.81989" lon="5.85444">
        <ele>343.4099893</ele>
        <time>2021-06-04T07:44:02Z</time>
      </trkpt>
      <trkpt lat="45.81981" lon="5.85451">
        <ele>343.8952711</ele>
        <time>2021-06-04T07:44:12Z</time>
      </trkpt>
      <trkpt lat="45.81974" lon="5.85462">
        <ele>344.0524702</ele>
        <time>2021-06-04T07:44:28Z</time>
      </trkpt>
      <trkpt lat="45.81966" lon="5.85472">
        <ele>343.0025015</ele>
        <time>2021-06-04T07:44:37Z</time>
      </trkpt>
      <trkpt lat="45.81957" lon="5.85479">
        <ele>343.5379518</ele>
        <time>2021-06-04T07:44:48Z</time>
      </trkpt>
      <trkpt lat="45.8195" lon="5.85489">
        <ele>342.8681128</ele>
        <time>2021-06-04T07:45:00Z</time>
      </trkpt>
      <trkpt lat="45.81943" lon="5.85497">
        <ele>342.9526923</ele>
        <time>2021-06-04T07:45:11Z</time>
      </trkpt>
      <trkpt lat="45.81934" lon="5.85502">
        <ele>344.4059327</ele>
        <time>2021-06-04T07:45:22Z</time>
      </trkpt>
      <trkpt lat="45.81926" lon="5.85508">
        <ele>349.5809848</ele>
        <time>2021-06-04T07:45:58Z</time>
      </trkpt>
      <trkpt lat="45.81935" lon="5.85511">
        <ele>351.8726717</ele>
        <time>2021-06-04T07:46:12Z</time>
      </trkpt>
      <trkpt lat="45.81945" lon="5.8551">
        <ele>352.5381529</ele>
        <time>2021-06-04T07:46:20Z</time>
      </trkpt>
      <trkpt lat="45.81955" lon="5.85513">
        <ele>354.1550605</ele>
        <time>2021-06-04T07:46:41Z</time>
      </trkpt>
      <trkpt lat="45.81964" lon="5.85517">
        <ele>355.2165492</ele>
        <time>2021-06-04T07:46:51Z</time>
      </trkpt>
      <trkpt lat="45.81973" lon="5.85521">
        <ele>355.5171619</ele>
        <time>2021-06-04T07:47:06Z</time>
      </trkpt>
      <trkpt lat="45.81981" lon="5.85528">
        <ele>355.9985989</ele>
        <time>2021-06-04T07:47:18Z</time>
      </trkpt>
      <trkpt lat="45.81988" lon="5.85537">
        <ele>359.2259019</ele>
        <time>2021-06-04T07:47:36Z</time>
      </trkpt>
      <trkpt lat="45.81997" lon="5.85543">
        <ele>358.7807853</ele>
        <time>2021-06-04T07:47:49Z</time>
      </trkpt>
      <trkpt lat="45.82005" lon="5.85549">
        <ele>361.0171244</ele>
        <time>2021-06-04T07:48:00Z</time>
      </trkpt>
      <trkpt lat="45.82013" lon="5.85555">
        <ele>362.2415655</ele>
        <time>2021-06-04T07:48:14Z</time>
      </trkpt>
      <trkpt lat="45.8202" lon="5.85565">
        <ele>364.5030234</ele>
        <time>2021-06-04T07:48:54Z</time>
      </trkpt>
      <trkpt lat="45.82023" lon="5.85578">
        <ele>368.2197167</ele>
        <time>2021-06-04T07:49:18Z</time>
      </trkpt>
      <trkpt lat="45.82029" lon="5.85589">
        <ele>373.5229572</ele>
        <time>2021-06-04T07:49:40Z</time>
      </trkpt>
      <trkpt lat="45.82034" lon="5.856">
        <ele>377.2077254</ele>
        <time>2021-06-04T07:50:03Z</time>
      </trkpt>
      <trkpt lat="45.82038" lon="5.85612">
        <ele>382.5769695</ele>
        <time>2021-06-04T07:50:31Z</time>
      </trkpt>
      <trkpt lat="45.82039" lon="5.85625">
        <ele>386.4094595</ele>
        <time>2021-06-04T07:50:53Z</time>
      </trkpt>
      <trkpt lat="45.82037" lon="5.85638">
        <ele>391.2667926</ele>
        <time>2021-06-04T07:51:18Z</time>
      </trkpt>
      <trkpt lat="45.82041" lon="5.8565">
        <ele>392.241629</ele>
        <time>2021-06-04T07:52:04Z</time>
      </trkpt>
      <trkpt lat="45.82041" lon="5.85663">
        <ele>398.6256295</ele>
        <time>2021-06-04T07:52:35Z</time>
      </trkpt>
      <trkpt lat="45.8205" lon="5.85659">
        <ele>406.9658362</ele>
        <time>2021-06-04T07:53:17Z</time>
      </trkpt>
      <trkpt lat="45.82053" lon="5.85672">
        <ele>410.5043788</ele>
        <time>2021-06-04T07:54:15Z</time>
      </trkpt>
      <trkpt lat="45.8206" lon="5.85663">
        <ele>413.1984155</ele>
        <time>2021-06-04T07:54:31Z</time>
      </trkpt>
      <trkpt lat="45.82063" lon="5.85676">
        <ele>414.6757924</ele>
        <time>2021-06-04T07:54:43Z</time>
      </trkpt>
      <trkpt lat="45.82066" lon="5.8565">
        <ele>416.0615461</ele>
        <time>2021-06-04T07:54:50Z</time>
      </trkpt>
      <trkpt lat="45.82064" lon="5.85666">
        <ele>416.0193105</ele>
        <time>2021-06-04T07:54:51Z</time>
      </trkpt>
      <trkpt lat="45.82068" lon="5.8565">
        <ele>416.5143677</ele>
        <time>2021-06-04T07:54:58Z</time>
      </trkpt>
      <trkpt lat="45.82074" lon="5.85639">
        <ele>417.9035698</ele>
        <time>2021-06-04T07:55:03Z</time>
      </trkpt>
      <trkpt lat="45.82073" lon="5.85662">
        <ele>418.6894114</ele>
        <time>2021-06-04T07:55:11Z</time>
      </trkpt>
      <trkpt lat="45.82076" lon="5.85677">
        <ele>420.8220257</ele>
        <time>2021-06-04T07:55:24Z</time>
      </trkpt>
      <trkpt lat="45.82079" lon="5.85664">
        <ele>421.6280702</ele>
        <time>2021-06-04T07:55:32Z</time>
      </trkpt>
      <trkpt lat="45.82084" lon="5.85675">
        <ele>424.7649447</ele>
        <time>2021-06-04T07:55:55Z</time>
      </trkpt>
      <trkpt lat="45.82087" lon="5.85662">
        <ele>424.9949459</ele>
        <time>2021-06-04T07:56:02Z</time>
      </trkpt>
      <trkpt lat="45.82095" lon="5.85655">
        <ele>417.446753</ele>
        <time>2021-06-04T07:56:42Z</time>
      </trkpt>
      <trkpt lat="45.82097" lon="5.85667">
        <ele>420.3491508</ele>
        <time>2021-06-04T07:57:08Z</time>
      </trkpt>
      <trkpt lat="45.82106" lon="5.85673">
        <ele>427.3044318</ele>
        <time>2021-06-04T07:57:28Z</time>
      </trkpt>
      <trkpt lat="45.82115" lon="5.85672">
        <ele>431.5263481</ele>
        <time>2021-06-04T07:58:20Z</time>
      </trkpt>
      <trkpt lat="45.82121" lon="5.85682">
        <ele>436.7478857</ele>
        <time>2021-06-04T07:58:54Z</time>
      </trkpt>
      <trkpt lat="45.82112" lon="5.85686">
        <ele>445.2773835</ele>
        <time>2021-06-04T07:59:24Z</time>
      </trkpt>
      <trkpt lat="45.82102" lon="5.85685">
        <ele>440.3049001</ele>
        <time>2021-06-04T07:59:46Z</time>
      </trkpt>
      <trkpt lat="45.82093" lon="5.85686">
        <ele>438.0082968</ele>
        <time>2021-06-04T08:00:02Z</time>
      </trkpt>
      <trkpt lat="45.82083" lon="5.85687">
        <ele>437.3163632</ele>
        <time>2021-06-04T08:00:14Z</time>
      </trkpt>
      <trkpt lat="45.82075" lon="5.85695">
        <ele>439.208952</ele>
        <time>2021-06-04T08:00:30Z</time>
      </trkpt>
      <trkpt lat="45.82068" lon="5.85704">
        <ele>442.8797776</ele>
        <time>2021-06-04T08:01:08Z</time>
      </trkpt>
      <trkpt lat="45.82059" lon="5.85705">
        <ele>451.4547809</ele>
        <time>2021-06-04T08:02:03Z</time>
      </trkpt>
      <trkpt lat="45.82053" lon="5.85715">
        <ele>447.9109285</ele>
        <time>2021-06-04T08:02:25Z</time>
      </trkpt>
      <trkpt lat="45.82039" lon="5.85711">
        <ele>445.7646771</ele>
        <time>2021-06-04T08:06:32Z</time>
      </trkpt>
      <trkpt lat="45.82032" lon="5.8572">
        <ele>448.0122945</ele>
        <time>2021-06-04T08:06:47Z</time>
      </trkpt>
      <trkpt lat="45.82024" lon="5.85727">
        <ele>453.8320586</ele>
        <time>2021-06-04T08:07:05Z</time>
      </trkpt>
      <trkpt lat="45.82018" lon="5.85738">
        <ele>456.3166164</ele>
        <time>2021-06-04T08:07:18Z</time>
      </trkpt>
      <trkpt lat="45.82011" lon="5.85747">
        <ele>457.3224205</ele>
        <time>2021-06-04T08:07:29Z</time>
      </trkpt>
      <trkpt lat="45.82005" lon="5.85755">
        <ele>460.5928147</ele>
        <time>2021-06-04T08:07:48Z</time>
      </trkpt>
      <trkpt lat="45.81998" lon="5.85765">
        <ele>465.1837048</ele>
        <time>2021-06-04T08:08:06Z</time>
      </trkpt>
      <trkpt lat="45.8199" lon="5.85771">
        <ele>467.7327314</ele>
        <time>2021-06-04T08:08:27Z</time>
      </trkpt>
      <trkpt lat="45.81984" lon="5.85781">
        <ele>472.4773222</ele>
        <time>2021-06-04T08:09:33Z</time>
      </trkpt>
      <trkpt lat="45.81975" lon="5.8578">
        <ele>472.1851856</ele>
        <time>2021-06-04T08:09:48Z</time>
      </trkpt>
      <trkpt lat="45.81966" lon="5.85782">
        <ele>471.4836308</ele>
        <time>2021-06-04T08:09:57Z</time>
      </trkpt>
      <trkpt lat="45.81956" lon="5.85779">
        <ele>470.7709452</ele>
        <time>2021-06-04T08:10:07Z</time>
      </trkpt>
      <trkpt lat="45.81947" lon="5.85781">
        <ele>471.553976</ele>
        <time>2021-06-04T08:10:18Z</time>
      </trkpt>
      <trkpt lat="45.81938" lon="5.85785">
        <ele>472.4244864</ele>
        <time>2021-06-04T08:10:28Z</time>
      </trkpt>
      <trkpt lat="45.8193" lon="5.85791">
        <ele>473.3187043</ele>
        <time>2021-06-04T08:10:38Z</time>
      </trkpt>
      <trkpt lat="45.8192" lon="5.85788">
        <ele>472.12321</ele>
        <time>2021-06-04T08:10:50Z</time>
      </trkpt>
      <trkpt lat="45.81911" lon="5.85788">
        <ele>473.3439783</ele>
        <time>2021-06-04T08:11:00Z</time>
      </trkpt>
      <trkpt lat="45.81901" lon="5.85786">
        <ele>473.0952242</ele>
        <time>2021-06-04T08:11:09Z</time>
      </trkpt>
      <trkpt lat="45.81892" lon="5.85787">
        <ele>475.083289</ele>
        <time>2021-06-04T08:11:19Z</time>
      </trkpt>
      <trkpt lat="45.81883" lon="5.85785">
        <ele>472.7534103</ele>
        <time>2021-06-04T08:11:33Z</time>
      </trkpt>
      <trkpt lat="45.81873" lon="5.85785">
        <ele>472.7780219</ele>
        <time>2021-06-04T08:11:45Z</time>
      </trkpt>
      <trkpt lat="45.81864" lon="5.85787">
        <ele>473.3747258</ele>
        <time>2021-06-04T08:12:00Z</time>
      </trkpt>
      <trkpt lat="45.81855" lon="5.85785">
        <ele>471.358224</ele>
        <time>2021-06-04T08:12:17Z</time>
      </trkpt>
      <trkpt lat="45.81845" lon="5.85788">
        <ele>471.811825</ele>
        <time>2021-06-04T08:12:33Z</time>
      </trkpt>
      <trkpt lat="45.81836" lon="5.85788">
        <ele>472.1237403</ele>
        <time>2021-06-04T08:12:52Z</time>
      </trkpt>
      <trkpt lat="45.81826" lon="5.8579">
        <ele>470.5659541</ele>
        <time>2021-06-04T08:13:07Z</time>
      </trkpt>
      <trkpt lat="45.81817" lon="5.85791">
        <ele>471.428213</ele>
        <time>2021-06-04T08:13:17Z</time>
      </trkpt>
      <trkpt lat="45.81808" lon="5.85791">
        <ele>471.1819688</ele>
        <time>2021-06-04T08:13:33Z</time>
      </trkpt>
      <trkpt lat="45.81799" lon="5.85788">
        <ele>467.7108912</ele>
        <time>2021-06-04T08:13:58Z</time>
      </trkpt>
      <trkpt lat="45.81789" lon="5.85788">
        <ele>467.0734344</ele>
        <time>2021-06-04T08:14:24Z</time>
      </trkpt>
      <trkpt lat="45.8178" lon="5.85786">
        <ele>466.2160609</ele>
        <time>2021-06-04T08:14:40Z</time>
      </trkpt>
      <trkpt lat="45.81767" lon="5.85782">
        <ele>464.5360729</ele>
        <time>2021-06-04T08:16:11Z</time>
      </trkpt>
      <trkpt lat="45.81758" lon="5.85785">
        <ele>463.0916381</ele>
        <time>2021-06-04T08:16:20Z</time>
      </trkpt>
      <trkpt lat="45.81749" lon="5.85784">
        <ele>462.3155654</ele>
        <time>2021-06-04T08:16:30Z</time>
      </trkpt>
      <trkpt lat="45.81739" lon="5.85784">
        <ele>463.0305732</ele>
        <time>2021-06-04T08:16:41Z</time>
      </trkpt>
      <trkpt lat="45.81729" lon="5.85785">
        <ele>462.5705092</ele>
        <time>2021-06-04T08:16:52Z</time>
      </trkpt>
      <trkpt lat="45.8172" lon="5.85786">
        <ele>462.7017838</ele>
        <time>2021-06-04T08:17:03Z</time>
      </trkpt>
      <trkpt lat="45.81711" lon="5.85788">
        <ele>462.4882498</ele>
        <time>2021-06-04T08:17:13Z</time>
      </trkpt>
      <trkpt lat="45.81702" lon="5.8579">
        <ele>461.3907086</ele>
        <time>2021-06-04T08:17:22Z</time>
      </trkpt>
      <trkpt lat="45.81692" lon="5.85794">
        <ele>461.9839242</ele>
        <time>2021-06-04T08:17:31Z</time>
      </trkpt>
      <trkpt lat="45.81682" lon="5.85789">
        <ele>461.6811837</ele>
        <time>2021-06-04T08:17:42Z</time>
      </trkpt>
      <trkpt lat="45.81672" lon="5.85786">
        <ele>458.7646181</ele>
        <time>2021-06-04T08:17:54Z</time>
      </trkpt>
      <trkpt lat="45.81663" lon="5.85786">
        <ele>458.5067427</ele>
        <time>2021-06-04T08:18:05Z</time>
      </trkpt>
      <trkpt lat="45.81654" lon="5.85784">
        <ele>456.8182933</ele>
        <time>2021-06-04T08:18:15Z</time>
      </trkpt>
      <trkpt lat="45.81644" lon="5.85785">
        <ele>456.2077738</ele>
        <time>2021-06-04T08:18:26Z</time>
      </trkpt>
      <trkpt lat="45.81635" lon="5.85786">
        <ele>455.768916</ele>
        <time>2021-06-04T08:19:50Z</time>
      </trkpt>
      <trkpt lat="45.81644" lon="5.85792">
        <ele>457.1711641</ele>
        <time>2021-06-04T08:20:32Z</time>
      </trkpt>
      <trkpt lat="45.81657" lon="5.85813">
        <ele>462.5588445</ele>
        <time>2021-06-04T08:21:19Z</time>
      </trkpt>
      <trkpt lat="45.81663" lon="5.85823">
        <ele>467.9984403</ele>
        <time>2021-06-04T08:21:45Z</time>
      </trkpt>
      <trkpt lat="45.81659" lon="5.85837">
        <ele>472.6328697</ele>
        <time>2021-06-04T08:22:17Z</time>
      </trkpt>
      <trkpt lat="45.81649" lon="5.85838">
        <ele>471.9691441</ele>
        <time>2021-06-04T08:22:41Z</time>
      </trkpt>
      <trkpt lat="45.81642" lon="5.85847">
        <ele>471.224183</ele>
        <time>2021-06-04T08:22:58Z</time>
      </trkpt>
      <trkpt lat="45.81633" lon="5.85848">
        <ele>473.614798</ele>
        <time>2021-06-04T08:23:19Z</time>
      </trkpt>
      <trkpt lat="45.81624" lon="5.85845">
        <ele>474.3202973</ele>
        <time>2021-06-04T08:23:34Z</time>
      </trkpt>
      <trkpt lat="45.81615" lon="5.85845">
        <ele>473.0459406</ele>
        <time>2021-06-04T08:23:51Z</time>
      </trkpt>
      <trkpt lat="45.81606" lon="5.85844">
        <ele>472.1417033</ele>
        <time>2021-06-04T08:24:10Z</time>
      </trkpt>
      <trkpt lat="45.81599" lon="5.85835">
        <ele>468.5587232</ele>
        <time>2021-06-04T08:24:57Z</time>
      </trkpt>
      <trkpt lat="45.81591" lon="5.85828">
        <ele>465.9429518</ele>
        <time>2021-06-04T08:25:34Z</time>
      </trkpt>
      <trkpt lat="45.81582" lon="5.85826">
        <ele>465.2800654</ele>
        <time>2021-06-04T08:25:50Z</time>
      </trkpt>
      <trkpt lat="45.81572" lon="5.85825">
        <ele>464.9504231</ele>
        <time>2021-06-04T08:26:07Z</time>
      </trkpt>
      <trkpt lat="45.81562" lon="5.85821">
        <ele>463.5661824</ele>
        <time>2021-06-04T08:26:22Z</time>
      </trkpt>
      <trkpt lat="45.81553" lon="5.8582">
        <ele>463.1293086</ele>
        <time>2021-06-04T08:26:37Z</time>
      </trkpt>
      <trkpt lat="45.81544" lon="5.85816">
        <ele>462.8013519</ele>
        <time>2021-06-04T08:26:51Z</time>
      </trkpt>
      <trkpt lat="45.81534" lon="5.85819">
        <ele>462.9952946</ele>
        <time>2021-06-04T08:27:06Z</time>
      </trkpt>
      <trkpt lat="45.81525" lon="5.85819">
        <ele>464.5639805</ele>
        <time>2021-06-04T08:27:18Z</time>
      </trkpt>
      <trkpt lat="45.81516" lon="5.85819">
        <ele>462.7897948</ele>
        <time>2021-06-04T08:27:30Z</time>
      </trkpt>
      <trkpt lat="45.81506" lon="5.85821">
        <ele>462.9171587</ele>
        <time>2021-06-04T08:27:42Z</time>
      </trkpt>
      <trkpt lat="45.81496" lon="5.85822">
        <ele>462.095002</ele>
        <time>2021-06-04T08:27:53Z</time>
      </trkpt>
      <trkpt lat="45.81487" lon="5.85822">
        <ele>461.2710754</ele>
        <time>2021-06-04T08:28:05Z</time>
      </trkpt>
      <trkpt lat="45.81478" lon="5.85825">
        <ele>460.1410569</ele>
        <time>2021-06-04T08:28:17Z</time>
      </trkpt>
      <trkpt lat="45.81469" lon="5.85824">
        <ele>457.5460837</ele>
        <time>2021-06-04T08:28:30Z</time>
      </trkpt>
      <trkpt lat="45.8146" lon="5.8582">
        <ele>455.9889984</ele>
        <time>2021-06-04T08:28:41Z</time>
      </trkpt>
      <trkpt lat="45.81452" lon="5.85817">
        <ele>455.590964</ele>
        <time>2021-06-04T08:28:51Z</time>
      </trkpt>
      <trkpt lat="45.81442" lon="5.85817">
        <ele>454.1808214</ele>
        <time>2021-06-04T08:29:02Z</time>
      </trkpt>
      <trkpt lat="45.81434" lon="5.85814">
        <ele>454.7415306</ele>
        <time>2021-06-04T08:29:13Z</time>
      </trkpt>
      <trkpt lat="45.81424" lon="5.85811">
        <ele>453.462232</ele>
        <time>2021-06-04T08:29:26Z</time>
      </trkpt>
      <trkpt lat="45.81416" lon="5.85807">
        <ele>453.0666464</ele>
        <time>2021-06-04T08:29:37Z</time>
      </trkpt>
      <trkpt lat="45.81407" lon="5.85802">
        <ele>454.2452702</ele>
        <time>2021-06-04T08:29:49Z</time>
      </trkpt>
      <trkpt lat="45.81398" lon="5.858">
        <ele>453.0980998</ele>
        <time>2021-06-04T08:30:04Z</time>
      </trkpt>
      <trkpt lat="45.81389" lon="5.85798">
        <ele>451.1819222</ele>
        <time>2021-06-04T08:30:13Z</time>
      </trkpt>
      <trkpt lat="45.8138" lon="5.85795">
        <ele>451.8807255</ele>
        <time>2021-06-04T08:30:23Z</time>
      </trkpt>
      <trkpt lat="45.81371" lon="5.85792">
        <ele>450.7322288</ele>
        <time>2021-06-04T08:30:35Z</time>
      </trkpt>
      <trkpt lat="45.81362" lon="5.85792">
        <ele>448.5897448</ele>
        <time>2021-06-04T08:30:47Z</time>
      </trkpt>
      <trkpt lat="45.81352" lon="5.85791">
        <ele>448.9223386</ele>
        <time>2021-06-04T08:30:57Z</time>
      </trkpt>
      <trkpt lat="45.81342" lon="5.85788">
        <ele>448.5866</ele>
        <time>2021-06-04T08:31:07Z</time>
      </trkpt>
      <trkpt lat="45.81333" lon="5.85787">
        <ele>448.8403755</ele>
        <time>2021-06-04T08:31:17Z</time>
      </trkpt>
      <trkpt lat="45.81324" lon="5.85784">
        <ele>446.9818587</ele>
        <time>2021-06-04T08:31:25Z</time>
      </trkpt>
      <trkpt lat="45.81314" lon="5.8578">
        <ele>446.2968316</ele>
        <time>2021-06-04T08:31:34Z</time>
      </trkpt>
      <trkpt lat="45.81306" lon="5.85775">
        <ele>446.2685701</ele>
        <time>2021-06-04T08:31:41Z</time>
      </trkpt>
      <trkpt lat="45.81297" lon="5.85775">
        <ele>443.9301808</ele>
        <time>2021-06-04T08:31:55Z</time>
      </trkpt>
      <trkpt lat="45.81287" lon="5.85771">
        <ele>441.3684569</ele>
        <time>2021-06-04T08:32:08Z</time>
      </trkpt>
      <trkpt lat="45.81278" lon="5.85772">
        <ele>439.8525214</ele>
        <time>2021-06-04T08:32:19Z</time>
      </trkpt>
      <trkpt lat="45.81269" lon="5.8577">
        <ele>438.2645382</ele>
        <time>2021-06-04T08:32:30Z</time>
      </trkpt>
      <trkpt lat="45.8126" lon="5.85765">
        <ele>439.6408653</ele>
        <time>2021-06-04T08:32:37Z</time>
      </trkpt>
      <trkpt lat="45.81251" lon="5.85762">
        <ele>438.8319456</ele>
        <time>2021-06-04T08:32:47Z</time>
      </trkpt>
      <trkpt lat="45.81242" lon="5.85761">
        <ele>437.5643704</ele>
        <time>2021-06-04T08:32:56Z</time>
      </trkpt>
      <trkpt lat="45.81233" lon="5.85766">
        <ele>436.3169722</ele>
        <time>2021-06-04T08:33:06Z</time>
      </trkpt>
      <trkpt lat="45.81224" lon="5.8577">
        <ele>440.0782647</ele>
        <time>2021-06-04T08:33:38Z</time>
      </trkpt>
      <trkpt lat="45.81215" lon="5.85768">
        <ele>434.8382278</ele>
        <time>2021-06-04T08:35:36Z</time>
      </trkpt>
      <trkpt lat="45.81206" lon="5.85773">
        <ele>431.4802639</ele>
        <time>2021-06-04T08:35:48Z</time>
      </trkpt>
      <trkpt lat="45.81197" lon="5.85775">
        <ele>431.6959204</ele>
        <time>2021-06-04T08:36:03Z</time>
      </trkpt>
      <trkpt lat="45.81188" lon="5.85776">
        <ele>431.8105589</ele>
        <time>2021-06-04T08:36:16Z</time>
      </trkpt>
      <trkpt lat="45.81179" lon="5.85782">
        <ele>430.8193859</ele>
        <time>2021-06-04T08:36:27Z</time>
      </trkpt>
      <trkpt lat="45.8117" lon="5.85784">
        <ele>432.2547892</ele>
        <time>2021-06-04T08:36:38Z</time>
      </trkpt>
      <trkpt lat="45.8116" lon="5.85782">
        <ele>429.8832452</ele>
        <time>2021-06-04T08:36:50Z</time>
      </trkpt>
      <trkpt lat="45.81151" lon="5.85778">
        <ele>428.2691694</ele>
        <time>2021-06-04T08:37:01Z</time>
      </trkpt>
      <trkpt lat="45.81141" lon="5.85773">
        <ele>426.3183989</ele>
        <time>2021-06-04T08:37:13Z</time>
      </trkpt>
      <trkpt lat="45.81132" lon="5.85772">
        <ele>426.2658602</ele>
        <time>2021-06-04T08:37:21Z</time>
      </trkpt>
      <trkpt lat="45.81122" lon="5.8577">
        <ele>425.0051695</ele>
        <time>2021-06-04T08:37:32Z</time>
      </trkpt>
      <trkpt lat="45.81112" lon="5.85768">
        <ele>422.400009</ele>
        <time>2021-06-04T08:37:42Z</time>
      </trkpt>
      <trkpt lat="45.81103" lon="5.85772">
        <ele>419.1395642</ele>
        <time>2021-06-04T08:37:53Z</time>
      </trkpt>
      <trkpt lat="45.81094" lon="5.85777">
        <ele>419.9764005</ele>
        <time>2021-06-04T08:38:02Z</time>
      </trkpt>
      <trkpt lat="45.81085" lon="5.85781">
        <ele>417.7318707</ele>
        <time>2021-06-04T08:38:13Z</time>
      </trkpt>
      <trkpt lat="45.81077" lon="5.85786">
        <ele>417.2869941</ele>
        <time>2021-06-04T08:38:23Z</time>
      </trkpt>
      <trkpt lat="45.81067" lon="5.85788">
        <ele>416.7457882</ele>
        <time>2021-06-04T08:38:33Z</time>
      </trkpt>
      <trkpt lat="45.81058" lon="5.85789">
        <ele>414.9430975</ele>
        <time>2021-06-04T08:38:46Z</time>
      </trkpt>
      <trkpt lat="45.81049" lon="5.85791">
        <ele>411.1719076</ele>
        <time>2021-06-04T08:39:00Z</time>
      </trkpt>
      <trkpt lat="45.8104" lon="5.85796">
        <ele>409.2381547</ele>
        <time>2021-06-04T08:39:20Z</time>
      </trkpt>
      <trkpt lat="45.81031" lon="5.85802">
        <ele>408.6208342</ele>
        <time>2021-06-04T08:39:57Z</time>
      </trkpt>
      <trkpt lat="45.81023" lon="5.85809">
        <ele>404.1554621</ele>
        <time>2021-06-04T08:40:25Z</time>
      </trkpt>
      <trkpt lat="45.81014" lon="5.85811">
        <ele>402.0055504</ele>
        <time>2021-06-04T08:41:14Z</time>
      </trkpt>
      <trkpt lat="45.81004" lon="5.85816">
        <ele>399.0899314</ele>
        <time>2021-06-04T08:41:37Z</time>
      </trkpt>
      <trkpt lat="45.80996" lon="5.85823">
        <ele>396.5720999</ele>
        <time>2021-06-04T08:41:51Z</time>
      </trkpt>
      <trkpt lat="45.80989" lon="5.85831">
        <ele>395.2031436</ele>
        <time>2021-06-04T08:42:01Z</time>
      </trkpt>
      <trkpt lat="45.8098" lon="5.85832">
        <ele>394.6036438</ele>
        <time>2021-06-04T08:42:09Z</time>
      </trkpt>
      <trkpt lat="45.80971" lon="5.85837">
        <ele>393.7735959</ele>
        <time>2021-06-04T08:42:20Z</time>
      </trkpt>
      <trkpt lat="45.80961" lon="5.85838">
        <ele>392.275182</ele>
        <time>2021-06-04T08:42:31Z</time>
      </trkpt>
      <trkpt lat="45.80952" lon="5.85836">
        <ele>391.0506697</ele>
        <time>2021-06-04T08:42:42Z</time>
      </trkpt>
      <trkpt lat="45.80943" lon="5.85835">
        <ele>389.5347644</ele>
        <time>2021-06-04T08:42:51Z</time>
      </trkpt>
      <trkpt lat="45.80933" lon="5.85833">
        <ele>388.636087</ele>
        <time>2021-06-04T08:43:00Z</time>
      </trkpt>
      <trkpt lat="45.80924" lon="5.85832">
        <ele>386.9573739</ele>
        <time>2021-06-04T08:43:12Z</time>
      </trkpt>
      <trkpt lat="45.80914" lon="5.85835">
        <ele>385.1873527</ele>
        <time>2021-06-04T08:43:23Z</time>
      </trkpt>
      <trkpt lat="45.80905" lon="5.8584">
        <ele>384.0580926</ele>
        <time>2021-06-04T08:43:45Z</time>
      </trkpt>
      <trkpt lat="45.80896" lon="5.85841">
        <ele>384.4633621</ele>
        <time>2021-06-04T08:44:02Z</time>
      </trkpt>
      <trkpt lat="45.80887" lon="5.85841">
        <ele>382.0565905</ele>
        <time>2021-06-04T08:44:14Z</time>
      </trkpt>
      <trkpt lat="45.80878" lon="5.85841">
        <ele>380.9558348</ele>
        <time>2021-06-04T08:44:24Z</time>
      </trkpt>
      <trkpt lat="45.80868" lon="5.85842">
        <ele>379.3287435</ele>
        <time>2021-06-04T08:44:36Z</time>
      </trkpt>
      <trkpt lat="45.80858" lon="5.85842">
        <ele>378.9945616</ele>
        <time>2021-06-04T08:44:47Z</time>
      </trkpt>
      <trkpt lat="45.80849" lon="5.85844">
        <ele>377.6327073</ele>
        <time>2021-06-04T08:44:59Z</time>
      </trkpt>
      <trkpt lat="45.8084" lon="5.85846">
        <ele>375.0787809</ele>
        <time>2021-06-04T08:45:15Z</time>
      </trkpt>
      <trkpt lat="45.8083" lon="5.85847">
        <ele>371.6573088</ele>
        <time>2021-06-04T08:45:43Z</time>
      </trkpt>
      <trkpt lat="45.80821" lon="5.85846">
        <ele>371.5929298</ele>
        <time>2021-06-04T08:45:54Z</time>
      </trkpt>
      <trkpt lat="45.80812" lon="5.85849">
        <ele>369.1288689</ele>
        <time>2021-06-04T08:46:09Z</time>
      </trkpt>
      <trkpt lat="45.80803" lon="5.85842">
        <ele>370.9970112</ele>
        <time>2021-06-04T08:46:17Z</time>
      </trkpt>
      <trkpt lat="45.80795" lon="5.85837">
        <ele>369.0728976</ele>
        <time>2021-06-04T08:46:27Z</time>
      </trkpt>
      <trkpt lat="45.80787" lon="5.85831">
        <ele>369.0187449</ele>
        <time>2021-06-04T08:46:36Z</time>
      </trkpt>
      <trkpt lat="45.80777" lon="5.8583">
        <ele>365.993004</ele>
        <time>2021-06-04T08:46:47Z</time>
      </trkpt>
      <trkpt lat="45.80768" lon="5.85827">
        <ele>366.6921902</ele>
        <time>2021-06-04T08:46:59Z</time>
      </trkpt>
      <trkpt lat="45.80759" lon="5.85822">
        <ele>364.7584866</ele>
        <time>2021-06-04T08:47:09Z</time>
      </trkpt>
      <trkpt lat="45.8075" lon="5.85819">
        <ele>360.9501685</ele>
        <time>2021-06-04T08:47:21Z</time>
      </trkpt>
      <trkpt lat="45.8074" lon="5.85818">
        <ele>360.1824505</ele>
        <time>2021-06-04T08:47:30Z</time>
      </trkpt>
      <trkpt lat="45.80731" lon="5.85818">
        <ele>358.164624</ele>
        <time>2021-06-04T08:47:40Z</time>
      </trkpt>
      <trkpt lat="45.80721" lon="5.8582">
        <ele>355.695505</ele>
        <time>2021-06-04T08:47:50Z</time>
      </trkpt>
      <trkpt lat="45.80712" lon="5.85821">
        <ele>354.4082555</ele>
        <time>2021-06-04T08:48:01Z</time>
      </trkpt>
      <trkpt lat="45.80702" lon="5.8582">
        <ele>351.7566308</ele>
        <time>2021-06-04T08:48:12Z</time>
      </trkpt>
      <trkpt lat="45.80693" lon="5.85822">
        <ele>351.0451455</ele>
        <time>2021-06-04T08:48:23Z</time>
      </trkpt>
      <trkpt lat="45.80684" lon="5.85825">
        <ele>348.6353525</ele>
        <time>2021-06-04T08:48:35Z</time>
      </trkpt>
      <trkpt lat="45.80675" lon="5.85825">
        <ele>347.6712994</ele>
        <time>2021-06-04T08:48:46Z</time>
      </trkpt>
      <trkpt lat="45.80666" lon="5.85821">
        <ele>346.0092356</ele>
        <time>2021-06-04T08:48:57Z</time>
      </trkpt>
      <trkpt lat="45.80657" lon="5.85818">
        <ele>343.9129348</ele>
        <time>2021-06-04T08:49:08Z</time>
      </trkpt>
      <trkpt lat="45.80648" lon="5.85816">
        <ele>341.4908969</ele>
        <time>2021-06-04T08:49:19Z</time>
      </trkpt>
      <trkpt lat="45.8064" lon="5.85809">
        <ele>340.3656976</ele>
        <time>2021-06-04T08:49:33Z</time>
      </trkpt>
      <trkpt lat="45.80632" lon="5.85804">
        <ele>339.5210852</ele>
        <time>2021-06-04T08:49:49Z</time>
      </trkpt>
      <trkpt lat="45.80623" lon="5.85801">
        <ele>336.5640083</ele>
        <time>2021-06-04T08:50:08Z</time>
      </trkpt>
      <trkpt lat="45.80613" lon="5.85798">
        <ele>332.310932</ele>
        <time>2021-06-04T08:50:21Z</time>
      </trkpt>
      <trkpt lat="45.80603" lon="5.85793">
        <ele>332.2099928</ele>
        <time>2021-06-04T08:50:31Z</time>
      </trkpt>
      <trkpt lat="45.80595" lon="5.85785">
        <ele>330.7443219</ele>
        <time>2021-06-04T08:50:42Z</time>
      </trkpt>
      <trkpt lat="45.80586" lon="5.8578">
        <ele>329.1165611</ele>
        <time>2021-06-04T08:50:52Z</time>
      </trkpt>
      <trkpt lat="45.80576" lon="5.85781">
        <ele>328.1883387</ele>
        <time>2021-06-04T08:51:01Z</time>
      </trkpt>
      <trkpt lat="45.80568" lon="5.85786">
        <ele>326.5654066</ele>
        <time>2021-06-04T08:51:12Z</time>
      </trkpt>
      <trkpt lat="45.80559" lon="5.85788">
        <ele>324.7237282</ele>
        <time>2021-06-04T08:51:24Z</time>
      </trkpt>
      <trkpt lat="45.80566" lon="5.85769">
        <ele>323.1812965</ele>
        <time>2021-06-04T08:54:38Z</time>
      </trkpt>
      <trkpt lat="45.80575" lon="5.85761">
        <ele>323.2860412</ele>
        <time>2021-06-04T08:54:46Z</time>
      </trkpt>
      <trkpt lat="45.80583" lon="5.85754">
        <ele>324.5303331</ele>
        <time>2021-06-04T08:54:54Z</time>
      </trkpt>
      <trkpt lat="45.80593" lon="5.85749">
        <ele>323.0242151</ele>
        <time>2021-06-04T08:55:04Z</time>
      </trkpt>
      <trkpt lat="45.80601" lon="5.85746">
        <ele>321.9759336</ele>
        <time>2021-06-04T08:55:14Z</time>
      </trkpt>
      <trkpt lat="45.80611" lon="5.85743">
        <ele>319.7054327</ele>
        <time>2021-06-04T08:55:27Z</time>
      </trkpt>
      <trkpt lat="45.80621" lon="5.85741">
        <ele>319.3418757</ele>
        <time>2021-06-04T08:55:34Z</time>
      </trkpt>
      <trkpt lat="45.8063" lon="5.85739">
        <ele>319.086103</ele>
        <time>2021-06-04T08:55:42Z</time>
      </trkpt>
      <trkpt lat="45.8064" lon="5.85736">
        <ele>317.5629374</ele>
        <time>2021-06-04T08:55:51Z</time>
      </trkpt>
      <trkpt lat="45.80649" lon="5.85734">
        <ele>317.3432642</ele>
        <time>2021-06-04T08:56:00Z</time>
      </trkpt>
      <trkpt lat="45.80659" lon="5.85728">
        <ele>315.1894823</ele>
        <time>2021-06-04T08:56:10Z</time>
      </trkpt>
      <trkpt lat="45.80667" lon="5.85723">
        <ele>315.1572912</ele>
        <time>2021-06-04T08:56:18Z</time>
      </trkpt>
      <trkpt lat="45.80676" lon="5.85716">
        <ele>315.0852875</ele>
        <time>2021-06-04T08:56:26Z</time>
      </trkpt>
      <trkpt lat="45.80685" lon="5.85711">
        <ele>313.9990437</ele>
        <time>2021-06-04T08:56:34Z</time>
      </trkpt>
      <trkpt lat="45.80693" lon="5.85703">
        <ele>313.4797235</ele>
        <time>2021-06-04T08:56:42Z</time>
      </trkpt>
      <trkpt lat="45.80701" lon="5.85697">
        <ele>312.9364232</ele>
        <time>2021-06-04T08:56:49Z</time>
      </trkpt>
      <trkpt lat="45.8071" lon="5.85693">
        <ele>311.7412255</ele>
        <time>2021-06-04T08:56:58Z</time>
      </trkpt>
      <trkpt lat="45.80718" lon="5.85689">
        <ele>311.419437</ele>
        <time>2021-06-04T08:57:05Z</time>
      </trkpt>
      <trkpt lat="45.80727" lon="5.85685">
        <ele>311.2870203</ele>
        <time>2021-06-04T08:57:12Z</time>
      </trkpt>
      <trkpt lat="45.80737" lon="5.85681">
        <ele>311.6018964</ele>
        <time>2021-06-04T08:57:21Z</time>
      </trkpt>
      <trkpt lat="45.80746" lon="5.85676">
        <ele>310.1781391</ele>
        <time>2021-06-04T08:57:29Z</time>
      </trkpt>
      <trkpt lat="45.80754" lon="5.8567">
        <ele>310.4263761</ele>
        <time>2021-06-04T08:57:37Z</time>
      </trkpt>
      <trkpt lat="45.80763" lon="5.85665">
        <ele>310.128951</ele>
        <time>2021-06-04T08:57:46Z</time>
      </trkpt>
      <trkpt lat="45.80771" lon="5.85659">
        <ele>309.4564957</ele>
        <time>2021-06-04T08:57:54Z</time>
      </trkpt>
      <trkpt lat="45.8078" lon="5.85653">
        <ele>308.4021508</ele>
        <time>2021-06-04T08:58:03Z</time>
      </trkpt>
      <trkpt lat="45.80789" lon="5.85648">
        <ele>309.3233211</ele>
        <time>2021-06-04T08:58:11Z</time>
      </trkpt>
      <trkpt lat="45.80798" lon="5.85642">
        <ele>309.2274583</ele>
        <time>2021-06-04T08:58:19Z</time>
      </trkpt>
      <trkpt lat="45.80808" lon="5.85637">
        <ele>309.8211628</ele>
        <time>2021-06-04T08:58:27Z</time>
      </trkpt>
      <trkpt lat="45.80817" lon="5.8563">
        <ele>309.893265</ele>
        <time>2021-06-04T08:58:35Z</time>
      </trkpt>
      <trkpt lat="45.80824" lon="5.85622">
        <ele>308.3526868</ele>
        <time>2021-06-04T08:58:44Z</time>
      </trkpt>
      <trkpt lat="45.80834" lon="5.85617">
        <ele>308.6094693</ele>
        <time>2021-06-04T08:58:51Z</time>
      </trkpt>
      <trkpt lat="45.80842" lon="5.8561">
        <ele>307.6741585</ele>
        <time>2021-06-04T08:59:00Z</time>
      </trkpt>
      <trkpt lat="45.80851" lon="5.85602">
        <ele>305.9911597</ele>
        <time>2021-06-04T08:59:15Z</time>
      </trkpt>
      <trkpt lat="45.8086" lon="5.85598">
        <ele>305.2057447</ele>
        <time>2021-06-04T08:59:26Z</time>
      </trkpt>
      <trkpt lat="45.8087" lon="5.85594">
        <ele>303.0943941</ele>
        <time>2021-06-04T08:59:36Z</time>
      </trkpt>
      <trkpt lat="45.80878" lon="5.85589">
        <ele>305.0367738</ele>
        <time>2021-06-04T09:00:02Z</time>
      </trkpt>
      <trkpt lat="45.80887" lon="5.85595">
        <ele>305.2032655</ele>
        <time>2021-06-04T09:00:16Z</time>
      </trkpt>
      <trkpt lat="45.80897" lon="5.85596">
        <ele>305.6454482</ele>
        <time>2021-06-04T09:00:27Z</time>
      </trkpt>
      <trkpt lat="45.80905" lon="5.856">
        <ele>307.0428879</ele>
        <time>2021-06-04T09:00:41Z</time>
      </trkpt>
      <trkpt lat="45.80915" lon="5.85602">
        <ele>308.6125076</ele>
        <time>2021-06-04T09:00:53Z</time>
      </trkpt>
      <trkpt lat="45.80923" lon="5.85606">
        <ele>311.1440805</ele>
        <time>2021-06-04T09:01:04Z</time>
      </trkpt>
      <trkpt lat="45.80933" lon="5.8561">
        <ele>312.3144903</ele>
        <time>2021-06-04T09:01:15Z</time>
      </trkpt>
      <trkpt lat="45.80943" lon="5.85614">
        <ele>314.1643508</ele>
        <time>2021-06-04T09:01:25Z</time>
      </trkpt>
      <trkpt lat="45.80953" lon="5.85611">
        <ele>316.546745</ele>
        <time>2021-06-04T09:01:37Z</time>
      </trkpt>
      <trkpt lat="45.80961" lon="5.85604">
        <ele>318.9701073</ele>
        <time>2021-06-04T09:01:50Z</time>
      </trkpt>
      <trkpt lat="45.8097" lon="5.85603">
        <ele>319.1808441</ele>
        <time>2021-06-04T09:02:00Z</time>
      </trkpt>
      <trkpt lat="45.80979" lon="5.85597">
        <ele>321.4611127</ele>
        <time>2021-06-04T09:02:09Z</time>
      </trkpt>
      <trkpt lat="45.80987" lon="5.8559">
        <ele>322.8200403</ele>
        <time>2021-06-04T09:02:18Z</time>
      </trkpt>
      <trkpt lat="45.80996" lon="5.85587">
        <ele>321.9783451</ele>
        <time>2021-06-04T09:02:27Z</time>
      </trkpt>
      <trkpt lat="45.81006" lon="5.85586">
        <ele>322.5154897</ele>
        <time>2021-06-04T09:02:39Z</time>
      </trkpt>
      <trkpt lat="45.81015" lon="5.8559">
        <ele>325.7176586</ele>
        <time>2021-06-04T09:02:52Z</time>
      </trkpt>
      <trkpt lat="45.81024" lon="5.85592">
        <ele>328.3812788</ele>
        <time>2021-06-04T09:03:05Z</time>
      </trkpt>
      <trkpt lat="45.81033" lon="5.85589">
        <ele>331.2285454</ele>
        <time>2021-06-04T09:03:20Z</time>
      </trkpt>
      <trkpt lat="45.81043" lon="5.85586">
        <ele>333.730279</ele>
        <time>2021-06-04T09:03:33Z</time>
      </trkpt>
      <trkpt lat="45.81053" lon="5.85585">
        <ele>334.2986758</ele>
        <time>2021-06-04T09:03:44Z</time>
      </trkpt>
      <trkpt lat="45.81062" lon="5.85584">
        <ele>336.0487482</ele>
        <time>2021-06-04T09:03:55Z</time>
      </trkpt>
      <trkpt lat="45.81071" lon="5.85584">
        <ele>337.6032167</ele>
        <time>2021-06-04T09:04:05Z</time>
      </trkpt>
      <trkpt lat="45.81081" lon="5.8558">
        <ele>339.2464963</ele>
        <time>2021-06-04T09:04:16Z</time>
      </trkpt>
      <trkpt lat="45.8109" lon="5.85578">
        <ele>339.7543801</ele>
        <time>2021-06-04T09:04:26Z</time>
      </trkpt>
      <trkpt lat="45.81099" lon="5.85576">
        <ele>340.303922</ele>
        <time>2021-06-04T09:04:38Z</time>
      </trkpt>
      <trkpt lat="45.81109" lon="5.85577">
        <ele>343.2584081</ele>
        <time>2021-06-04T09:04:50Z</time>
      </trkpt>
      <trkpt lat="45.81118" lon="5.85577">
        <ele>346.6250656</ele>
        <time>2021-06-04T09:05:01Z</time>
      </trkpt>
      <trkpt lat="45.81128" lon="5.85575">
        <ele>347.6512417</ele>
        <time>2021-06-04T09:05:15Z</time>
      </trkpt>
      <trkpt lat="45.81139" lon="5.85576">
        <ele>348.67772</ele>
        <time>2021-06-04T09:05:28Z</time>
      </trkpt>
      <trkpt lat="45.81148" lon="5.85574">
        <ele>349.7788811</ele>
        <time>2021-06-04T09:05:40Z</time>
      </trkpt>
      <trkpt lat="45.81158" lon="5.85572">
        <ele>351.5617099</ele>
        <time>2021-06-04T09:05:49Z</time>
      </trkpt>
      <trkpt lat="45.81167" lon="5.85571">
        <ele>351.6512287</ele>
        <time>2021-06-04T09:05:59Z</time>
      </trkpt>
      <trkpt lat="45.81177" lon="5.85568">
        <ele>352.537981</ele>
        <time>2021-06-04T09:06:11Z</time>
      </trkpt>
      <trkpt lat="45.81186" lon="5.85565">
        <ele>351.9514388</ele>
        <time>2021-06-04T09:06:23Z</time>
      </trkpt>
      <trkpt lat="45.81195" lon="5.85566">
        <ele>353.4913849</ele>
        <time>2021-06-04T09:06:32Z</time>
      </trkpt>
      <trkpt lat="45.81206" lon="5.85567">
        <ele>352.1695198</ele>
        <time>2021-06-04T09:06:42Z</time>
      </trkpt>
      <trkpt lat="45.81215" lon="5.85565">
        <ele>352.761399</ele>
        <time>2021-06-04T09:06:51Z</time>
      </trkpt>
      <trkpt lat="45.81224" lon="5.85562">
        <ele>352.6802072</ele>
        <time>2021-06-04T09:07:13Z</time>
      </trkpt>
      <trkpt lat="45.81234" lon="5.8556">
        <ele>353.0403507</ele>
        <time>2021-06-04T09:07:22Z</time>
      </trkpt>
      <trkpt lat="45.81243" lon="5.8556">
        <ele>354.098942</ele>
        <time>2021-06-04T09:07:33Z</time>
      </trkpt>
      <trkpt lat="45.81253" lon="5.85558">
        <ele>354.5264409</ele>
        <time>2021-06-04T09:07:42Z</time>
      </trkpt>
      <trkpt lat="45.81263" lon="5.85557">
        <ele>354.1320474</ele>
        <time>2021-06-04T09:07:54Z</time>
      </trkpt>
      <trkpt lat="45.81272" lon="5.85555">
        <ele>355.1072384</ele>
        <time>2021-06-04T09:08:04Z</time>
      </trkpt>
      <trkpt lat="45.81289" lon="5.8555">
        <ele>358.9684245</ele>
        <time>2021-06-04T09:10:56Z</time>
      </trkpt>
      <trkpt lat="45.81299" lon="5.85548">
        <ele>359.5421565</ele>
        <time>2021-06-04T09:11:06Z</time>
      </trkpt>
      <trkpt lat="45.81308" lon="5.85547">
        <ele>359.9368453</ele>
        <time>2021-06-04T09:11:16Z</time>
      </trkpt>
      <trkpt lat="45.81318" lon="5.85548">
        <ele>359.59753</ele>
        <time>2021-06-04T09:11:26Z</time>
      </trkpt>
      <trkpt lat="45.81327" lon="5.85549">
        <ele>359.9719857</ele>
        <time>2021-06-04T09:11:35Z</time>
      </trkpt>
      <trkpt lat="45.81336" lon="5.8555">
        <ele>360.8300921</ele>
        <time>2021-06-04T09:11:44Z</time>
      </trkpt>
      <trkpt lat="45.81346" lon="5.85552">
        <ele>361.2565482</ele>
        <time>2021-06-04T09:11:56Z</time>
      </trkpt>
      <trkpt lat="45.81355" lon="5.85549">
        <ele>361.8458962</ele>
        <time>2021-06-04T09:12:07Z</time>
      </trkpt>
      <trkpt lat="45.81365" lon="5.85552">
        <ele>364.923565</ele>
        <time>2021-06-04T09:12:16Z</time>
      </trkpt>
      <trkpt lat="45.81373" lon="5.85547">
        <ele>365.9106486</ele>
        <time>2021-06-04T09:12:25Z</time>
      </trkpt>
      <trkpt lat="45.81383" lon="5.85545">
        <ele>366.6838337</ele>
        <time>2021-06-04T09:12:34Z</time>
      </trkpt>
      <trkpt lat="45.81393" lon="5.85546">
        <ele>365.5717943</ele>
        <time>2021-06-04T09:12:43Z</time>
      </trkpt>
      <trkpt lat="45.81402" lon="5.85546">
        <ele>363.0096934</ele>
        <time>2021-06-04T09:12:55Z</time>
      </trkpt>
      <trkpt lat="45.81412" lon="5.85547">
        <ele>362.3418142</ele>
        <time>2021-06-04T09:13:05Z</time>
      </trkpt>
      <trkpt lat="45.81421" lon="5.85547">
        <ele>363.1925514</ele>
        <time>2021-06-04T09:13:14Z</time>
      </trkpt>
      <trkpt lat="45.8143" lon="5.85549">
        <ele>362.3577928</ele>
        <time>2021-06-04T09:13:24Z</time>
      </trkpt>
      <trkpt lat="45.81439" lon="5.85549">
        <ele>360.9021293</ele>
        <time>2021-06-04T09:13:33Z</time>
      </trkpt>
      <trkpt lat="45.81449" lon="5.85548">
        <ele>358.9380013</ele>
        <time>2021-06-04T09:13:44Z</time>
      </trkpt>
      <trkpt lat="45.81459" lon="5.85549">
        <ele>358.1294375</ele>
        <time>2021-06-04T09:13:55Z</time>
      </trkpt>
      <trkpt lat="45.81468" lon="5.8555">
        <ele>356.8163369</ele>
        <time>2021-06-04T09:14:06Z</time>
      </trkpt>
      <trkpt lat="45.81478" lon="5.85552">
        <ele>356.6132934</ele>
        <time>2021-06-04T09:14:17Z</time>
      </trkpt>
      <trkpt lat="45.81489" lon="5.85555">
        <ele>356.2364168</ele>
        <time>2021-06-04T09:14:29Z</time>
      </trkpt>
      <trkpt lat="45.81499" lon="5.85556">
        <ele>355.0888399</ele>
        <time>2021-06-04T09:14:39Z</time>
      </trkpt>
      <trkpt lat="45.81508" lon="5.85555">
        <ele>355.1108866</ele>
        <time>2021-06-04T09:14:48Z</time>
      </trkpt>
      <trkpt lat="45.81517" lon="5.85556">
        <ele>354.4628134</ele>
        <time>2021-06-04T09:14:57Z</time>
      </trkpt>
      <trkpt lat="45.81527" lon="5.85557">
        <ele>353.7768667</ele>
        <time>2021-06-04T09:15:07Z</time>
      </trkpt>
      <trkpt lat="45.81537" lon="5.85559">
        <ele>353.5236461</ele>
        <time>2021-06-04T09:15:16Z</time>
      </trkpt>
      <trkpt lat="45.81546" lon="5.85559">
        <ele>353.1501894</ele>
        <time>2021-06-04T09:15:25Z</time>
      </trkpt>
      <trkpt lat="45.81555" lon="5.85558">
        <ele>353.5476266</ele>
        <time>2021-06-04T09:15:33Z</time>
      </trkpt>
      <trkpt lat="45.81564" lon="5.85563">
        <ele>354.6136943</ele>
        <time>2021-06-04T09:15:51Z</time>
      </trkpt>
      <trkpt lat="45.81572" lon="5.85571">
        <ele>355.5511687</ele>
        <time>2021-06-04T09:15:59Z</time>
      </trkpt>
      <trkpt lat="45.81581" lon="5.85575">
        <ele>356.9199861</ele>
        <time>2021-06-04T09:16:09Z</time>
      </trkpt>
      <trkpt lat="45.81589" lon="5.85583">
        <ele>358.2499929</ele>
        <time>2021-06-04T09:16:20Z</time>
      </trkpt>
      <trkpt lat="45.81599" lon="5.85586">
        <ele>359.4646359</ele>
        <time>2021-06-04T09:16:32Z</time>
      </trkpt>
      <trkpt lat="45.81608" lon="5.85589">
        <ele>359.9392592</ele>
        <time>2021-06-04T09:16:43Z</time>
      </trkpt>
      <trkpt lat="45.81617" lon="5.85594">
        <ele>361.5751193</ele>
        <time>2021-06-04T09:17:19Z</time>
      </trkpt>
      <trkpt lat="45.81626" lon="5.85599">
        <ele>362.8574102</ele>
        <time>2021-06-04T09:17:32Z</time>
      </trkpt>
      <trkpt lat="45.81635" lon="5.85602">
        <ele>364.4077372</ele>
        <time>2021-06-04T09:17:49Z</time>
      </trkpt>
      <trkpt lat="45.81644" lon="5.85604">
        <ele>367.793461</ele>
        <time>2021-06-04T09:17:59Z</time>
      </trkpt>
      <trkpt lat="45.81654" lon="5.85605">
        <ele>369.6469873</ele>
        <time>2021-06-04T09:18:11Z</time>
      </trkpt>
      <trkpt lat="45.81664" lon="5.85607">
        <ele>370.7566183</ele>
        <time>2021-06-04T09:18:22Z</time>
      </trkpt>
      <trkpt lat="45.81673" lon="5.85609">
        <ele>371.4658433</ele>
        <time>2021-06-04T09:18:31Z</time>
      </trkpt>
      <trkpt lat="45.81682" lon="5.85609">
        <ele>372.1227228</ele>
        <time>2021-06-04T09:18:45Z</time>
      </trkpt>
      <trkpt lat="45.81692" lon="5.85611">
        <ele>371.6362413</ele>
        <time>2021-06-04T09:18:55Z</time>
      </trkpt>
      <trkpt lat="45.81701" lon="5.85611">
        <ele>373.1623061</ele>
        <time>2021-06-04T09:19:04Z</time>
      </trkpt>
      <trkpt lat="45.81711" lon="5.85613">
        <ele>374.1700942</ele>
        <time>2021-06-04T09:19:14Z</time>
      </trkpt>
      <trkpt lat="45.81721" lon="5.85616">
        <ele>374.5745136</ele>
        <time>2021-06-04T09:19:26Z</time>
      </trkpt>
      <trkpt lat="45.81731" lon="5.85615">
        <ele>374.628391</ele>
        <time>2021-06-04T09:19:37Z</time>
      </trkpt>
      <trkpt lat="45.8174" lon="5.85611">
        <ele>374.9883298</ele>
        <time>2021-06-04T09:19:47Z</time>
      </trkpt>
      <trkpt lat="45.81749" lon="5.8561">
        <ele>374.9557145</ele>
        <time>2021-06-04T09:19:58Z</time>
      </trkpt>
      <trkpt lat="45.81758" lon="5.85608">
        <ele>373.5486327</ele>
        <time>2021-06-04T09:20:07Z</time>
      </trkpt>
      <trkpt lat="45.81767" lon="5.85608">
        <ele>372.5241055</ele>
        <time>2021-06-04T09:20:18Z</time>
      </trkpt>
      <trkpt lat="45.81778" lon="5.85607">
        <ele>373.3722569</ele>
        <time>2021-06-04T09:20:27Z</time>
      </trkpt>
      <trkpt lat="45.81788" lon="5.85608">
        <ele>372.9629638</ele>
        <time>2021-06-04T09:20:38Z</time>
      </trkpt>
      <trkpt lat="45.81797" lon="5.85605">
        <ele>373.0270544</ele>
        <time>2021-06-04T09:20:49Z</time>
      </trkpt>
      <trkpt lat="45.81806" lon="5.85604">
        <ele>373.2873773</ele>
        <time>2021-06-04T09:20:58Z</time>
      </trkpt>
      <trkpt lat="45.81815" lon="5.85602">
        <ele>372.3966869</ele>
        <time>2021-06-04T09:21:08Z</time>
      </trkpt>
      <trkpt lat="45.81824" lon="5.85598">
        <ele>372.9590221</ele>
        <time>2021-06-04T09:21:18Z</time>
      </trkpt>
      <trkpt lat="45.81833" lon="5.85596">
        <ele>374.6273425</ele>
        <time>2021-06-04T09:21:27Z</time>
      </trkpt>
      <trkpt lat="45.81843" lon="5.85594">
        <ele>372.6607521</ele>
        <time>2021-06-04T09:21:40Z</time>
      </trkpt>
      <trkpt lat="45.81853" lon="5.85591">
        <ele>373.4443146</ele>
        <time>2021-06-04T09:21:51Z</time>
      </trkpt>
      <trkpt lat="45.81863" lon="5.85591">
        <ele>374.0605867</ele>
        <time>2021-06-04T09:22:01Z</time>
      </trkpt>
      <trkpt lat="45.81873" lon="5.85593">
        <ele>373.1254186</ele>
        <time>2021-06-04T09:22:09Z</time>
      </trkpt>
      <trkpt lat="45.81882" lon="5.85594">
        <ele>372.401833</ele>
        <time>2021-06-04T09:22:19Z</time>
      </trkpt>
      <trkpt lat="45.81891" lon="5.85595">
        <ele>371.7028986</ele>
        <time>2021-06-04T09:22:27Z</time>
      </trkpt>
      <trkpt lat="45.81901" lon="5.85596">
        <ele>372.1806391</ele>
        <time>2021-06-04T09:22:35Z</time>
      </trkpt>
      <trkpt lat="45.81911" lon="5.85597">
        <ele>372.8276255</ele>
        <time>2021-06-04T09:22:44Z</time>
      </trkpt>
      <trkpt lat="45.8192" lon="5.85594">
        <ele>375.0736463</ele>
        <time>2021-06-04T09:22:57Z</time>
      </trkpt>
      <trkpt lat="45.81929" lon="5.85595">
        <ele>374.6108876</ele>
        <time>2021-06-04T09:23:07Z</time>
      </trkpt>
      <trkpt lat="45.81939" lon="5.85592">
        <ele>374.1758758</ele>
        <time>2021-06-04T09:23:27Z</time>
      </trkpt>
      <trkpt lat="45.81949" lon="5.8559">
        <ele>375.1450477</ele>
        <time>2021-06-04T09:23:38Z</time>
      </trkpt>
      <trkpt lat="45.81958" lon="5.85592">
        <ele>376.2494022</ele>
        <time>2021-06-04T09:23:49Z</time>
      </trkpt>
      <trkpt lat="45.81967" lon="5.85595">
        <ele>377.0400739</ele>
        <time>2021-06-04T09:23:59Z</time>
      </trkpt>
      <trkpt lat="45.81977" lon="5.85594">
        <ele>377.4051077</ele>
        <time>2021-06-04T09:24:11Z</time>
      </trkpt>
      <trkpt lat="45.81986" lon="5.85593">
        <ele>376.7129039</ele>
        <time>2021-06-04T09:24:21Z</time>
      </trkpt>
      <trkpt lat="45.81996" lon="5.8559">
        <ele>375.8286355</ele>
        <time>2021-06-04T09:24:31Z</time>
      </trkpt>
      <trkpt lat="45.82004" lon="5.85582">
        <ele>375.8526104</ele>
        <time>2021-06-04T09:24:42Z</time>
      </trkpt>
      <trkpt lat="45.82011" lon="5.85573">
        <ele>373.624582</ele>
        <time>2021-06-04T09:24:52Z</time>
      </trkpt>
      <trkpt lat="45.82017" lon="5.85562">
        <ele>371.7026985</ele>
        <time>2021-06-04T09:25:03Z</time>
      </trkpt>
      <trkpt lat="45.82009" lon="5.85556">
        <ele>368.4543929</ele>
        <time>2021-06-04T09:25:52Z</time>
      </trkpt>
      <trkpt lat="45.82001" lon="5.85549">
        <ele>364.752843</ele>
        <time>2021-06-04T09:26:06Z</time>
      </trkpt>
      <trkpt lat="45.81993" lon="5.85542">
        <ele>363.5775924</ele>
        <time>2021-06-04T09:26:17Z</time>
      </trkpt>
      <trkpt lat="45.81985" lon="5.85534">
        <ele>360.0119056</ele>
        <time>2021-06-04T09:26:27Z</time>
      </trkpt>
      <trkpt lat="45.81977" lon="5.85527">
        <ele>356.596212</ele>
        <time>2021-06-04T09:26:38Z</time>
      </trkpt>
      <trkpt lat="45.81969" lon="5.85521">
        <ele>355.2224176</ele>
        <time>2021-06-04T09:26:48Z</time>
      </trkpt>
      <trkpt lat="45.8196" lon="5.85517">
        <ele>355.3633348</ele>
        <time>2021-06-04T09:26:58Z</time>
      </trkpt>
      <trkpt lat="45.81952" lon="5.85514">
        <ele>355.0219663</ele>
        <time>2021-06-04T09:27:07Z</time>
      </trkpt>
      <trkpt lat="45.81942" lon="5.8551">
        <ele>355.1669464</ele>
        <time>2021-06-04T09:27:19Z</time>
      </trkpt>
      <trkpt lat="45.81933" lon="5.8551">
        <ele>355.2032869</ele>
        <time>2021-06-04T09:27:28Z</time>
      </trkpt>
      <trkpt lat="45.81923" lon="5.85512">
        <ele>354.5082022</ele>
        <time>2021-06-04T09:27:38Z</time>
      </trkpt>
      <trkpt lat="45.81932" lon="5.85517">
        <ele>350.5249226</ele>
        <time>2021-06-04T09:27:59Z</time>
      </trkpt>
      <trkpt lat="45.81924" lon="5.85511">
        <ele>352.744811</ele>
        <time>2021-06-04T09:28:11Z</time>
      </trkpt>
      <trkpt lat="45.81929" lon="5.855">
        <ele>352.6946957</ele>
        <time>2021-06-04T09:28:59Z</time>
      </trkpt>
      <trkpt lat="45.81938" lon="5.85495">
        <ele>352.0826292</ele>
        <time>2021-06-04T09:29:12Z</time>
      </trkpt>
      <trkpt lat="45.81946" lon="5.85489">
        <ele>351.0621281</ele>
        <time>2021-06-04T09:29:22Z</time>
      </trkpt>
      <trkpt lat="45.81954" lon="5.85483">
        <ele>348.6360544</ele>
        <time>2021-06-04T09:29:42Z</time>
      </trkpt>
      <trkpt lat="45.81962" lon="5.85473">
        <ele>346.7183228</ele>
        <time>2021-06-04T09:29:55Z</time>
      </trkpt>
      <trkpt lat="45.8197" lon="5.85466">
        <ele>344.606085</ele>
        <time>2021-06-04T09:30:07Z</time>
      </trkpt>
      <trkpt lat="45.81977" lon="5.85457">
        <ele>344.1060313</ele>
        <time>2021-06-04T09:30:17Z</time>
      </trkpt>
      <trkpt lat="45.81984" lon="5.85449">
        <ele>343.7428161</ele>
        <time>2021-06-04T09:30:26Z</time>
      </trkpt>
      <trkpt lat="45.81993" lon="5.85441">
        <ele>342.4510509</ele>
        <time>2021-06-04T09:30:40Z</time>
      </trkpt>
      <trkpt lat="45.82001" lon="5.85434">
        <ele>341.8173889</ele>
        <time>2021-06-04T09:30:52Z</time>
      </trkpt>
      <trkpt lat="45.82009" lon="5.85428">
        <ele>339.3629867</ele>
        <time>2021-06-04T09:31:03Z</time>
      </trkpt>
      <trkpt lat="45.82017" lon="5.85421">
        <ele>339.1120653</ele>
        <time>2021-06-04T09:31:11Z</time>
      </trkpt>
      <trkpt lat="45.82025" lon="5.85414">
        <ele>337.8260382</ele>
        <time>2021-06-04T09:31:23Z</time>
      </trkpt>
      <trkpt lat="45.82033" lon="5.85405">
        <ele>335.9447895</ele>
        <time>2021-06-04T09:31:34Z</time>
      </trkpt>
      <trkpt lat="45.8204" lon="5.85398">
        <ele>335.6439347</ele>
        <time>2021-06-04T09:31:42Z</time>
      </trkpt>
      <trkpt lat="45.82045" lon="5.85386">
        <ele>334.6206581</ele>
        <time>2021-06-04T09:31:51Z</time>
      </trkpt>
      <trkpt lat="45.82051" lon="5.85375">
        <ele>332.4697601</ele>
        <time>2021-06-04T09:32:02Z</time>
      </trkpt>
      <trkpt lat="45.8206" lon="5.85371">
        <ele>331.9053664</ele>
        <time>2021-06-04T09:32:11Z</time>
      </trkpt>
      <trkpt lat="45.8207" lon="5.85366">
        <ele>330.5672807</ele>
        <time>2021-06-04T09:32:20Z</time>
      </trkpt>
      <trkpt lat="45.82079" lon="5.85361">
        <ele>329.5865876</ele>
        <time>2021-06-04T09:32:29Z</time>
      </trkpt>
      <trkpt lat="45.82088" lon="5.85357">
        <ele>329.8082604</ele>
        <time>2021-06-04T09:32:37Z</time>
      </trkpt>
      <trkpt lat="45.82097" lon="5.8535">
        <ele>327.1959809</ele>
        <time>2021-06-04T09:33:06Z</time>
      </trkpt>
      <trkpt lat="45.82106" lon="5.85345">
        <ele>326.3274822</ele>
        <time>2021-06-04T09:33:15Z</time>
      </trkpt>
      <trkpt lat="45.82115" lon="5.8534">
        <ele>326.1314045</ele>
        <time>2021-06-04T09:33:23Z</time>
      </trkpt>
      <trkpt lat="45.82124" lon="5.85335">
        <ele>326.1220807</ele>
        <time>2021-06-04T09:33:31Z</time>
      </trkpt>
      <trkpt lat="45.8213" lon="5.85325">
        <ele>325.2234183</ele>
        <time>2021-06-04T09:33:39Z</time>
      </trkpt>
      <trkpt lat="45.82129" lon="5.85311">
        <ele>322.5792651</ele>
        <time>2021-06-04T09:33:48Z</time>
      </trkpt>
      <trkpt lat="45.82129" lon="5.85298">
        <ele>321.1611517</ele>
        <time>2021-06-04T09:33:57Z</time>
      </trkpt>
      <trkpt lat="45.82127" lon="5.85284">
        <ele>319.1855575</ele>
        <time>2021-06-04T09:34:06Z</time>
      </trkpt>
      <trkpt lat="45.82128" lon="5.85271">
        <ele>319.2013958</ele>
        <time>2021-06-04T09:34:16Z</time>
      </trkpt>
      <trkpt lat="45.82134" lon="5.85259">
        <ele>320.0975244</ele>
        <time>2021-06-04T09:34:31Z</time>
      </trkpt>
      <trkpt lat="45.82138" lon="5.85247">
        <ele>318.5107653</ele>
        <time>2021-06-04T09:34:40Z</time>
      </trkpt>
      <trkpt lat="45.82141" lon="5.85234">
        <ele>317.8931193</ele>
        <time>2021-06-04T09:34:48Z</time>
      </trkpt>
      <trkpt lat="45.82146" lon="5.85222">
        <ele>317.5309209</ele>
        <time>2021-06-04T09:34:56Z</time>
      </trkpt>
      <trkpt lat="45.8215" lon="5.8521">
        <ele>317.529444</ele>
        <time>2021-06-04T09:35:04Z</time>
      </trkpt>
      <trkpt lat="45.82154" lon="5.85197">
        <ele>317.3645878</ele>
        <time>2021-06-04T09:35:12Z</time>
      </trkpt>
      <trkpt lat="45.82157" lon="5.85183">
        <ele>317.4528661</ele>
        <time>2021-06-04T09:35:21Z</time>
      </trkpt>
      <trkpt lat="45.82155" lon="5.85171">
        <ele>317.1615044</ele>
        <time>2021-06-04T09:35:30Z</time>
      </trkpt>
      <trkpt lat="45.82151" lon="5.85157">
        <ele>315.8605406</ele>
        <time>2021-06-04T09:35:41Z</time>
      </trkpt>
      <trkpt lat="45.82149" lon="5.85144">
        <ele>313.7940217</ele>
        <time>2021-06-04T09:35:59Z</time>
      </trkpt>
      <trkpt lat="45.82155" lon="5.85134">
        <ele>313.3585177</ele>
        <time>2021-06-04T09:36:14Z</time>
      </trkpt>
      <trkpt lat="45.82146" lon="5.8513">
        <ele>311.7139193</ele>
        <time>2021-06-04T09:36:37Z</time>
      </trkpt>
      <trkpt lat="45.82136" lon="5.8513">
        <ele>310.1526327</ele>
        <time>2021-06-04T09:36:53Z</time>
      </trkpt>
    </trkseg>
  </trk>
</gpx>